Time;durP1;ratioP1;P1;durP2;ratioP2;P2;SDS_P1;SDS_P2;PMS_P1;PMS_P2;Temp;Humidity;BMP_temperature;BMP_pressure;BME280_temperature;BME280_humidity;BME280_pressure;Samples;Min_cycle;Max_cycle;Signal;HPM_P1;HPM_P2
2021/10/01 00:00:14;;;;;;;11.25;2.25;;;12.30;99.90;;;;;;5054216;28;20465;-78
2021/10/01 00:02:41;;;;;;;6.57;1.90;;;12.30;99.90;;;;;;5053825;28;20382;-78
2021/10/01 00:05:07;;;;;;;4.20;2.00;;;12.40;99.90;;;;;;5053436;28;20041;-77
2021/10/01 00:07:32;;;;;;;5.95;1.85;;;12.40;99.90;;;;;;5054452;28;20017;-78
2021/10/01 00:09:58;;;;;;;8.98;1.80;;;12.40;99.90;;;;;;5052857;28;20033;-78
2021/10/01 00:12:24;;;;;;;7.45;2.35;;;12.30;99.90;;;;;;5053709;28;20178;-77
2021/10/01 00:14:49;;;;;;;3.88;1.75;;;12.40;99.90;;;;;;5053736;28;20025;-77
2021/10/01 00:17:16;;;;;;;3.03;1.42;;;12.40;99.90;;;;;;5039737;28;20644;-78
2021/10/01 00:19:43;;;;;;;5.32;1.90;;;12.50;99.90;;;;;;5053279;28;20020;-78
2021/10/01 00:22:09;;;;;;;4.45;1.90;;;12.50;99.90;;;;;;5053983;28;20025;-77
2021/10/01 00:24:38;;;;;;;7.80;2.10;;;12.50;99.90;;;;;;5052940;28;20024;-78
2021/10/01 00:27:09;;;;;;;3.75;1.52;;;12.50;99.90;;;;;;5053610;28;20432;-77
2021/10/01 00:29:35;;;;;;;6.30;1.70;;;12.50;99.90;;;;;;5053382;28;20079;-77
2021/10/01 00:32:01;;;;;;;5.28;1.80;;;12.50;99.90;;;;;;5052228;28;20040;-78
2021/10/01 00:34:26;;;;;;;10.00;1.80;;;12.50;99.90;;;;;;5053618;28;20025;-78
2021/10/01 00:36:52;;;;;;;4.43;1.42;;;12.50;99.90;;;;;;5052909;28;20029;-79
2021/10/01 00:39:17;;;;;;;5.35;1.85;;;12.50;99.90;;;;;;5053048;28;20028;-78
2021/10/01 00:41:43;;;;;;;4.18;1.75;;;12.50;99.90;;;;;;5053126;28;20032;-78
2021/10/01 00:44:08;;;;;;;9.52;1.75;;;12.50;99.90;;;;;;5053082;28;20049;-77
2021/10/01 00:46:34;;;;;;;5.40;1.40;;;12.50;99.90;;;;;;5053048;28;20079;-77
2021/10/01 00:49:00;;;;;;;6.75;1.73;;;12.50;99.90;;;;;;5039151;28;20017;-77
2021/10/01 00:51:26;;;;;;;8.23;2.00;;;12.50;99.90;;;;;;5053554;28;20036;-78
2021/10/01 00:53:53;;;;;;;5.45;1.63;;;12.50;99.90;;;;;;5049880;28;20025;-78
2021/10/01 00:56:20;;;;;;;4.32;1.70;;;12.50;99.90;;;;;;5042295;28;20074;-77
2021/10/01 00:58:46;;;;;;;3.35;1.80;;;12.60;99.90;;;;;;5052598;28;20481;-78
2021/10/01 01:01:12;;;;;;;4.65;1.73;;;12.50;99.90;;;;;;5052459;28;20036;-77
2021/10/01 01:03:44;;;;;;;8.88;1.60;;;12.50;99.90;;;;;;5041620;28;20477;-77
2021/10/01 01:06:31;;;;;;;1.92;1.70;;;12.50;99.90;;;;;;5041576;28;20029;-77
2021/10/01 01:09:15;;;;;;;6.07;1.90;;;12.50;99.90;;;;;;5036106;28;20032;-77
2021/10/01 01:11:59;;;;;;;3.00;1.23;;;12.50;99.90;;;;;;5039695;28;20033;-77
2021/10/01 01:14:52;;;;;;;4.93;1.85;;;12.50;99.90;;;;;;5041367;28;20507;-77
2021/10/01 01:17:33;;;;;;;3.63;1.55;;;12.50;99.90;;;;;;5052370;28;20036;-78
2021/10/01 01:20:17;;;;;;;3.55;1.60;;;12.50;99.90;;;;;;5052428;28;20481;-78
2021/10/01 01:23:07;;;;;;;8.65;1.77;;;12.50;99.90;;;;;;5052060;28;20047;-78
2021/10/01 01:25:44;;;;;;;3.38;2.03;;;12.40;99.90;;;;;;5054872;28;20029;-78
2021/10/01 01:28:28;;;;;;;4.60;1.75;;;12.40;99.90;;;;;;5052275;28;20048;-79
2021/10/01 01:30:59;;;;;;;3.22;1.48;;;12.40;99.90;;;;;;5052395;28;20044;-78
2021/10/01 01:33:28;;;;;;;10.18;1.92;;;12.40;99.90;;;;;;5052661;28;20029;-78
2021/10/01 01:35:57;;;;;;;3.30;1.73;;;12.40;99.90;;;;;;5052517;28;20055;-78
2021/10/01 01:38:32;;;;;;;3.87;1.90;;;12.40;99.90;;;;;;5042312;28;20477;-77
2021/10/01 01:41:02;;;;;;;5.15;1.70;;;12.40;99.90;;;;;;5049458;28;20293;-78
2021/10/01 01:43:29;;;;;;;2.75;1.23;;;12.40;99.90;;;;;;5051883;28;20065;-77
2021/10/01 01:45:56;;;;;;;7.53;1.40;;;12.40;99.90;;;;;;5052185;28;20021;-77
2021/10/01 01:48:23;;;;;;;6.57;1.65;;;12.40;99.90;;;;;;5052153;28;20029;-78
2021/10/01 01:50:49;;;;;;;4.53;2.20;;;12.40;99.90;;;;;;5051565;28;20070;-78
2021/10/01 01:53:17;;;;;;;5.10;2.00;;;12.50;99.90;;;;;;5052220;28;20039;-78
2021/10/01 01:55:44;;;;;;;11.57;1.95;;;12.40;99.90;;;;;;5051626;28;20032;-78
2021/10/01 01:58:10;;;;;;;2.42;1.20;;;12.40;99.90;;;;;;5052097;28;20056;-77
2021/10/01 02:00:36;;;;;;;5.18;1.40;;;12.40;99.90;;;;;;5052074;28;20449;-78
2021/10/01 02:03:04;;;;;;;4.22;1.85;;;12.50;99.90;;;;;;5050916;28;20846;-78
2021/10/01 02:05:31;;;;;;;3.40;1.30;;;12.50;99.90;;;;;;5051953;28;20025;-78
2021/10/01 02:07:59;;;;;;;4.32;1.60;;;12.50;99.90;;;;;;5051728;28;20082;-79
2021/10/01 02:10:26;;;;;;;6.13;1.60;;;12.50;99.90;;;;;;5052032;28;20021;-78
2021/10/01 02:12:58;;;;;;;6.75;1.70;;;12.50;99.90;;;;;;5039587;28;20040;-77
2021/10/01 02:15:25;;;;;;;9.15;1.85;;;12.60;99.90;;;;;;5052198;28;20025;-78
2021/10/01 02:17:55;;;;;;;4.32;1.30;;;12.50;99.90;;;;;;5052154;28;20511;-78
2021/10/01 02:20:22;;;;;;;3.10;1.58;;;12.50;99.90;;;;;;5055591;28;20021;-78
2021/10/01 02:22:49;;;;;;;3.85;1.42;;;12.50;99.90;;;;;;5054249;28;20021;-79
2021/10/01 02:28:03;;;;;;;9.77;1.65;;;12.50;99.90;;;;;;5052499;28;20027;-77
2021/10/01 02:30:32;;;;;;;4.32;1.50;;;12.40;99.90;;;;;;5052664;28;20021;-79
2021/10/01 02:33:12;;;;;;;4.38;1.30;;;12.30;99.90;;;;;;5053789;28;20040;-79
2021/10/01 02:35:41;;;;;;;3.90;1.38;;;12.30;99.90;;;;;;5056109;28;20056;-79
2021/10/01 02:38:07;;;;;;;3.05;1.48;;;12.20;99.90;;;;;;5055431;28;20033;-79
2021/10/01 02:40:32;;;;;;;4.45;1.65;;;12.10;99.90;;;;;;5055592;28;20502;-79
2021/10/01 02:42:58;;;;;;;3.28;1.10;;;12.00;99.90;;;;;;5055220;28;20052;-79
2021/10/01 02:45:23;;;;;;;4.57;1.50;;;12.00;99.90;;;;;;5054966;28;20372;-79
2021/10/01 02:47:50;;;;;;;1.88;1.33;;;12.00;99.90;;;;;;5055270;28;20035;-79
2021/10/01 02:50:18;;;;;;;5.70;1.70;;;11.90;99.90;;;;;;5055473;28;20033;-79
2021/10/01 02:52:59;;;;;;;6.60;1.52;;;11.90;99.90;;;;;;5054316;28;20390;-79
2021/10/01 02:55:51;;;;;;;3.47;1.40;;;11.90;99.90;;;;;;5055704;28;20043;-78
2021/10/01 02:58:34;;;;;;;9.80;1.40;;;11.90;99.90;;;;;;5055276;28;20033;-79
2021/10/01 03:01:04;;;;;;;3.55;1.33;;;11.80;99.90;;;;;;5054429;28;20045;-78
2021/10/01 03:03:47;;;;;;;7.30;1.57;;;12.50;99.90;;;;;;5055374;28;20033;-79
2021/10/01 03:06:17;;;;;;;5.47;1.27;;;11.80;99.90;;;;;;5054677;28;20272;-78
2021/10/01 03:08:44;;;;;;;5.53;1.45;;;11.80;99.90;;;;;;5054880;28;20056;-79
2021/10/01 03:11:10;;;;;;;4.25;1.02;;;11.80;99.90;;;;;;5055097;28;20037;-77
2021/10/01 03:13:40;;;;;;;2.08;1.27;;;11.70;99.90;;;;;;5035491;28;20482;-78
2021/10/01 03:16:07;;;;;;;4.32;1.42;;;11.80;99.90;;;;;;5046372;28;20542;-79
2021/10/01 03:18:34;;;;;;;4.78;1.60;;;11.70;99.90;;;;;;5054741;28;20051;-79
2021/10/01 03:21:03;;;;;;;4.15;1.27;;;11.70;99.90;;;;;;5054254;28;20028;-79
2021/10/01 03:23:28;;;;;;;10.63;2.25;;;11.70;99.90;;;;;;5054717;28;20025;-80
2021/10/01 03:25:54;;;;;;;6.60;1.42;;;11.70;99.90;;;;;;5054612;28;20020;-79
2021/10/01 03:28:21;;;;;;;4.88;1.58;;;11.60;99.90;;;;;;5054088;28;20385;-79
2021/10/01 03:30:47;;;;;;;5.25;1.40;;;11.60;99.90;;;;;;5054320;28;20610;-78
2021/10/01 03:33:13;;;;;;;4.63;1.60;;;11.60;99.90;;;;;;5054644;28;20064;-79
2021/10/01 03:35:42;;;;;;;5.80;1.70;;;11.50;99.90;;;;;;5053765;28;20471;-78
2021/10/01 03:38:14;;;;;;;4.10;1.67;;;11.50;99.90;;;;;;5054654;28;20017;-77
2021/10/01 03:40:43;;;;;;;3.28;1.27;;;11.50;99.90;;;;;;5054396;28;20032;-77
2021/10/01 03:43:14;;;;;;;7.20;1.70;;;11.50;99.90;;;;;;5053605;28;20020;-78
2021/10/01 03:45:40;;;;;;;6.22;1.52;;;11.40;99.90;;;;;;5053694;28;20140;-77
2021/10/01 03:48:06;;;;;;;7.05;1.92;;;11.40;99.90;;;;;;5053781;28;20100;-77
2021/10/01 03:50:34;;;;;;;3.03;1.50;;;11.40;99.90;;;;;;5054213;28;20380;-78
2021/10/01 03:53:00;;;;;;;8.20;1.63;;;11.40;99.90;;;;;;5055487;28;20048;-76
2021/10/01 03:55:26;;;;;;;4.03;1.67;;;11.40;99.90;;;;;;5054634;28;20029;-77
2021/10/01 03:57:52;;;;;;;5.10;2.00;;;11.40;99.90;;;;;;5054153;28;20449;-78
2021/10/01 04:00:18;;;;;;;2.53;1.58;;;11.40;99.90;;;;;;5054136;28;20058;-80
2021/10/01 04:02:44;;;;;;;5.32;1.70;;;11.40;99.90;;;;;;5052972;28;20021;-78
2021/10/01 04:05:10;;;;;;;6.13;1.80;;;11.30;99.90;;;;;;5056808;28;20021;-77
2021/10/01 04:07:37;;;;;;;4.45;1.75;;;11.30;99.90;;;;;;5054089;28;20031;-78
2021/10/01 04:10:05;;;;;;;3.65;1.85;;;11.30;99.90;;;;;;5053057;28;20033;-78
2021/10/01 04:12:30;;;;;;;7.00;1.83;;;11.40;99.90;;;;;;5044139;28;20266;-78
2021/10/01 04:14:56;;;;;;;4.57;1.95;;;11.40;99.90;;;;;;5049414;28;20071;-78
2021/10/01 04:17:21;;;;;;;12.60;2.10;;;11.40;99.90;;;;;;5047154;28;20041;-80
2021/10/01 04:19:47;;;;;;;7.93;1.63;;;11.50;99.90;;;;;;5049831;28;20049;-78
2021/10/01 04:22:13;;;;;;;5.57;1.63;;;11.50;99.90;;;;;;5053746;28;20025;-79
2021/10/01 04:24:38;;;;;;;4.75;1.40;;;11.60;99.90;;;;;;5053043;28;20469;-79
2021/10/01 04:27:04;;;;;;;5.55;1.52;;;11.60;99.90;;;;;;5053301;28;20381;-79
2021/10/01 04:29:29;;;;;;;6.43;1.67;;;11.60;99.90;;;;;;5053988;28;20021;-78
2021/10/01 04:31:55;;;;;;;4.72;1.42;;;11.60;99.90;;;;;;5052877;28;20128;-79
2021/10/01 04:34:21;;;;;;;4.05;1.17;;;11.60;99.90;;;;;;5053904;28;20024;-77
2021/10/01 04:36:46;;;;;;;4.95;1.52;;;11.60;99.90;;;;;;5053476;28;20179;-77
2021/10/01 04:39:13;;;;;;;3.00;1.42;;;11.60;99.90;;;;;;5052859;28;20020;-78
2021/10/01 04:41:41;;;;;;;3.35;1.25;;;11.60;99.90;;;;;;5052061;28;20031;-77
2021/10/01 04:44:07;;;;;;;6.13;1.52;;;11.60;99.90;;;;;;5049591;28;20032;-77
2021/10/01 04:46:33;;;;;;;3.67;1.40;;;11.60;99.90;;;;;;5042893;28;20025;-80
2021/10/01 04:48:58;;;;;;;3.35;1.10;;;11.60;99.90;;;;;;5052769;28;20116;-77
2021/10/01 04:51:24;;;;;;;6.18;1.55;;;12.30;99.90;;;;;;5052558;28;20090;-78
2021/10/01 04:53:49;;;;;;;4.28;1.15;;;11.60;99.90;;;;;;5052963;28;20075;-78
2021/10/01 04:56:15;;;;;;;3.85;1.30;;;11.50;99.90;;;;;;5038571;28;20029;-78
2021/10/01 04:58:41;;;;;;;6.60;1.30;;;11.60;99.90;;;;;;5052035;28;20032;-77
2021/10/01 05:01:07;;;;;;;9.13;1.77;;;11.50;99.90;;;;;;5053089;28;20029;-77
2021/10/01 05:03:32;;;;;;;3.67;1.42;;;11.50;99.90;;;;;;5053005;28;20071;-78
2021/10/01 05:05:58;;;;;;;7.07;1.35;;;11.50;99.90;;;;;;5052050;28;20025;-77
2021/10/01 05:08:23;;;;;;;2.50;1.23;;;11.40;99.90;;;;;;5052657;28;20021;-77
2021/10/01 05:10:49;;;;;;;3.50;1.42;;;11.40;99.90;;;;;;5052550;28;20029;-79
2021/10/01 05:13:14;;;;;;;5.63;1.60;;;11.30;99.90;;;;;;5038039;28;20367;-78
2021/10/01 05:15:42;;;;;;;4.68;1.30;;;11.30;99.90;;;;;;5053733;28;20021;-79
2021/10/01 05:18:08;;;;;;;2.15;1.20;;;11.30;99.90;;;;;;5052423;28;20029;-78
2021/10/01 05:20:34;;;;;;;5.22;1.45;;;11.30;99.90;;;;;;5052252;28;20174;-78
2021/10/01 05:23:02;;;;;;;8.30;1.13;;;11.30;99.90;;;;;;5052792;28;20029;-79
2021/10/01 05:25:28;;;;;;;4.38;1.20;;;11.30;99.90;;;;;;5052527;28;20020;-78
2021/10/01 05:27:54;;;;;;;5.97;1.55;;;11.30;99.90;;;;;;5051941;28;20025;-78
2021/10/01 05:30:21;;;;;;;4.57;1.50;;;11.40;99.90;;;;;;5053657;28;20560;-78
2021/10/01 05:32:47;;;;;;;2.28;1.20;;;11.40;99.90;;;;;;5053666;28;20037;-79
2021/10/01 05:35:13;;;;;;;3.17;1.40;;;11.40;99.90;;;;;;5057691;28;20047;-78
2021/10/01 05:37:38;;;;;;;3.53;1.15;;;11.50;99.90;;;;;;5053350;28;20021;-78
2021/10/01 05:40:05;;;;;;;4.53;1.73;;;11.50;99.90;;;;;;5053113;28;20027;-79
2021/10/01 05:42:31;;;;;;;5.38;1.52;;;11.50;99.90;;;;;;5052256;28;20021;-79
2021/10/01 05:44:57;;;;;;;8.52;1.58;;;11.60;99.90;;;;;;5052250;28;20025;-78
2021/10/01 05:47:25;;;;;;;5.32;1.30;;;11.60;99.90;;;;;;5054192;28;20121;-78
2021/10/01 05:49:50;;;;;;;3.67;1.25;;;11.70;99.90;;;;;;5054263;28;20029;-78
2021/10/01 05:54:43;;;;;;;5.05;1.90;;;11.70;99.90;;;;;;5051508;28;20021;-79
2021/10/01 05:57:10;;;;;;;2.30;1.38;;;11.70;99.90;;;;;;5052449;28;20036;-78
2021/10/01 05:59:37;;;;;;;2.83;1.30;;;11.70;99.90;;;;;;5052190;28;20021;-79
2021/10/01 06:02:03;;;;;;;8.43;1.30;;;11.70;99.90;;;;;;5051257;28;20055;-79
2021/10/01 06:04:30;;;;;;;6.45;2.08;;;11.60;99.90;;;;;;5052016;28;20427;-78
2021/10/01 06:06:55;;;;;;;2.97;1.30;;;11.60;99.90;;;;;;5051663;28;20033;-79
2021/10/01 06:09:22;;;;;;;4.63;1.50;;;11.60;99.90;;;;;;5051759;28;20475;-78
2021/10/01 06:11:49;;;;;;;6.32;1.10;;;11.60;99.90;;;;;;5047797;28;20022;-78
2021/10/01 06:14:20;;;;;;;4.47;1.35;;;11.60;99.90;;;;;;5042134;28;20021;-78
2021/10/01 06:16:46;;;;;;;4.85;1.23;;;11.70;99.90;;;;;;5051085;28;20039;-79
2021/10/01 06:19:11;;;;;;;2.25;1.20;;;11.60;99.90;;;;;;5051781;28;20048;-78
2021/10/01 06:21:37;;;;;;;4.60;1.33;;;11.70;99.90;;;;;;5053666;28;20048;-79
2021/10/01 06:24:02;;;;;;;3.83;1.35;;;11.70;99.90;;;;;;5051809;28;20031;-78
2021/10/01 06:26:28;;;;;;;3.17;1.15;;;11.70;99.90;;;;;;5039349;28;20057;-79
2021/10/01 06:28:54;;;;;;;3.58;1.00;;;11.80;99.90;;;;;;5050427;28;20017;-78
2021/10/01 06:31:19;;;;;;;1.55;1.10;;;11.80;99.90;;;;;;5051277;28;20029;-79
2021/10/01 06:33:45;;;;;;;5.18;1.10;;;11.90;99.90;;;;;;5051501;28;20079;-80
2021/10/01 06:36:14;;;;;;;3.78;1.38;;;11.90;99.90;;;;;;5054572;28;20104;-79
2021/10/01 06:38:39;;;;;;;3.08;1.33;;;12.00;99.90;;;;;;5051403;28;20120;-78
2021/10/01 06:41:05;;;;;;;3.47;1.05;;;12.10;99.90;;;;;;5052011;28;20044;-79
2021/10/01 06:43:31;;;;;;;4.32;1.20;;;12.20;99.90;;;;;;5051986;28;20132;-79
2021/10/01 06:45:58;;;;;;;3.05;1.38;;;12.20;99.90;;;;;;5051057;28;20540;-78
2021/10/01 08:20:36;;;;;;;3.40;1.42;;;14.20;99.90;;;;;;5046224;28;20063;-77
2021/10/01 08:23:02;;;;;;;3.85;1.20;;;14.30;99.90;;;;;;5032859;28;20502;-76
2021/10/01 08:25:28;;;;;;;7.90;1.25;;;14.30;99.90;;;;;;5033812;28;20060;-77
2021/10/01 08:27:53;;;;;;;3.55;1.35;;;14.40;99.90;;;;;;5044012;28;20068;-76
2021/10/01 08:30:19;;;;;;;4.80;1.30;;;14.40;99.90;;;;;;5036855;28;20017;-77
2021/10/01 08:32:45;;;;;;;4.70;1.40;;;14.40;99.90;;;;;;5043242;28;20496;-77
2021/10/01 08:35:12;;;;;;;2.42;1.13;;;14.50;99.90;;;;;;5047428;28;20552;-77
2021/10/01 08:37:37;;;;;;;4.25;1.38;;;14.60;99.90;;;;;;5032863;28;20172;-77
2021/10/01 08:40:05;;;;;;;7.38;1.80;;;14.80;99.90;;;;;;5042714;28;20103;-77
2021/10/01 08:42:33;;;;;;;5.53;1.60;;;14.90;99.90;;;;;;5054673;28;20025;-80
2021/10/01 08:45:02;;;;;;;5.32;1.63;;;15.00;99.90;;;;;;5037771;28;20084;-79
2021/10/01 08:47:27;;;;;;;2.95;1.63;;;15.10;99.90;;;;;;5033994;28;20029;-78
2021/10/01 08:49:58;;;;;;;5.07;1.27;;;15.10;99.90;;;;;;5031648;28;20026;-76
2021/10/01 08:52:24;;;;;;;4.95;1.27;;;15.10;99.90;;;;;;5033232;28;20110;-75
2021/10/01 08:54:50;;;;;;;7.63;1.23;;;15.10;99.90;;;;;;5035140;28;20037;-75
2021/10/01 08:57:16;;;;;;;5.15;1.60;;;15.00;99.90;;;;;;5044697;28;20540;-75
2021/10/01 08:59:42;;;;;;;7.03;1.50;;;15.00;99.90;;;;;;5039396;28;20185;-76
2021/10/01 09:02:08;;;;;;;8.90;1.13;;;15.10;99.90;;;;;;5038354;28;20381;-73
2021/10/01 09:04:33;;;;;;;5.63;1.58;;;15.10;99.90;;;;;;5033588;28;20026;-75
2021/10/01 09:06:59;;;;;;;5.30;1.38;;;15.10;99.90;;;;;;5045145;28;20021;-77
2021/10/01 09:09:37;;;;;;;5.90;1.80;;;15.20;99.90;;;;;;5038871;28;20021;-77
2021/10/01 09:12:03;;;;;;;3.97;1.70;;;15.30;99.90;;;;;;5036354;28;20164;-77
2021/10/01 09:14:29;;;;;;;3.13;1.27;;;15.40;99.90;;;;;;5044595;28;20377;-76
2021/10/01 09:16:55;;;;;;;4.13;1.45;;;15.40;99.90;;;;;;5052187;28;20021;-75
2021/10/01 09:19:21;;;;;;;4.30;1.48;;;15.50;99.90;;;;;;5043324;28;20124;-78
2021/10/01 09:21:51;;;;;;;6.18;1.20;;;15.60;99.90;;;;;;5038234;28;20370;-77
2021/10/01 09:24:23;;;;;;;;;;;15.60;99.90;;;;;;5041833;28;20026;-77
2021/10/01 09:26:54;;;;;;;3.80;1.33;;;15.70;99.90;;;;;;5031239;28;19909;-77
2021/10/01 09:29:34;;;;;;;3.90;1.55;;;15.70;99.90;;;;;;5036703;28;20163;-77
2021/10/01 09:32:07;;;;;;;4.90;1.40;;;15.60;99.90;;;;;;5031923;28;20037;-77
2021/10/01 09:34:38;;;;;;;5.45;1.20;;;15.60;99.90;;;;;;5031841;28;20029;-77
2021/10/01 09:37:12;;;;;;;2.75;1.35;;;15.50;99.90;;;;;;5036420;28;20099;-77
2021/10/01 09:39:41;;;;;;;3.13;1.27;;;15.50;99.90;;;;;;5031785;28;20186;-76
2021/10/01 09:42:22;;;;;;;6.13;1.50;;;15.50;99.90;;;;;;5031372;28;20057;-77
2021/10/01 09:44:56;;;;;;;4.18;0.98;;;15.40;99.90;;;;;;5041133;28;20025;-77
2021/10/01 09:47:27;;;;;;;7.93;1.42;;;15.40;99.90;;;;;;5034215;28;20033;-77
2021/10/01 09:50:00;;;;;;;11.57;2.03;;;15.40;99.90;;;;;;5031529;28;20025;-79
2021/10/01 09:52:50;;;;;;;4.82;1.63;;;15.40;99.90;;;;;;5036074;28;20075;-77
2021/10/01 09:55:38;;;;;;;5.80;1.58;;;15.50;99.90;;;;;;5032981;28;20155;-78
2021/10/01 09:58:07;;;;;;;5.80;1.92;;;15.60;99.90;;;;;;5040977;28;20034;-78
2021/10/01 10:00:47;;;;;;;7.85;1.50;;;15.50;99.90;;;;;;5031305;28;20535;-78
2021/10/01 10:03:22;;;;;;;4.50;1.75;;;15.60;99.90;;;;;;5036077;28;20079;-78
2021/10/01 10:06:00;;;;;;;9.73;1.83;;;15.60;99.90;;;;;;5031086;28;20021;-78
2021/10/01 10:08:36;;;;;;;4.82;1.20;;;15.60;99.90;;;;;;5035339;28;20544;-77
2021/10/01 10:11:10;;;;;;;2.88;1.42;;;15.80;99.90;;;;;;5031154;28;20113;-77
2021/10/01 10:13:51;;;;;;;8.40;1.88;;;15.50;99.90;;;;;;5036100;28;20028;-77
2021/10/01 10:16:22;;;;;;;7.32;1.65;;;15.50;99.90;;;;;;5051274;28;20022;-77
2021/10/01 10:18:51;;;;;;;5.85;1.42;;;15.40;99.90;;;;;;5050917;28;20064;-77
2021/10/01 10:21:17;;;;;;;5.22;1.38;;;15.30;99.90;;;;;;5051635;28;20021;-78
2021/10/01 10:23:43;;;;;;;6.38;1.88;;;15.30;99.90;;;;;;5051050;28;20031;-77
2021/10/01 10:26:09;;;;;;;5.45;1.90;;;15.20;99.90;;;;;;5042163;28;20124;-77
2021/10/01 10:28:38;;;;;;;7.43;2.20;;;15.20;99.90;;;;;;5037955;28;20481;-77
2021/10/01 10:31:08;;;;;;;3.70;1.77;;;15.10;99.90;;;;;;5047643;28;20112;-79
2021/10/01 10:33:37;;;;;;;3.70;1.75;;;15.20;99.90;;;;;;5032568;28;20029;-77
2021/10/01 10:36:40;;;;;;;4.00;2.05;;;15.30;99.90;;;;;;5033894;28;20055;-77
2021/10/01 10:39:12;;;;;;;5.72;2.58;;;15.30;99.90;;;;;;5031031;28;20486;-77
2021/10/01 10:41:40;;;;;;;7.05;2.05;;;15.40;99.90;;;;;;5039985;28;20029;-79
2021/10/01 10:44:06;;;;;;;3.67;1.73;;;15.40;99.90;;;;;;5030397;28;20028;-76
2021/10/01 10:46:34;;;;;;;6.10;2.15;;;15.40;99.90;;;;;;5041413;28;20041;-79
2021/10/01 10:52:12;;;;;;;5.63;1.85;;;15.40;99.90;;;;;;5033533;28;20044;-78
2021/10/01 10:54:52;;;;;;;9.45;2.40;;;15.40;99.90;;;;;;5052978;28;20040;-80
2021/10/01 10:57:25;;;;;;;4.68;2.08;;;15.30;99.90;;;;;;5035949;28;20033;-81
2021/10/01 10:59:58;;;;;;;5.90;2.05;;;15.50;99.90;;;;;;5036274;28;20030;-80
2021/10/01 11:02:33;;;;;;;6.13;2.33;;;15.60;99.90;;;;;;5037926;28;20021;-79
2021/10/01 11:05:18;;;;;;;9.48;2.40;;;15.60;99.90;;;;;;5034984;28;20104;-79
2021/10/01 11:08:02;;;;;;;7.30;2.92;;;15.70;99.90;;;;;;5034829;28;20448;-77
2021/10/01 11:10:38;;;;;;;10.05;2.40;;;15.80;99.90;;;;;;5048050;28;20025;-77
2021/10/01 11:13:19;;;;;;;6.35;2.17;;;15.80;99.90;;;;;;5034166;28;20488;-76
2021/10/01 11:16:13;;;;;;;8.95;2.15;;;15.80;99.90;;;;;;5054883;28;20045;-82
2021/10/01 11:18:47;;;;;;;8.32;2.40;;;15.80;99.90;;;;;;5054141;28;20041;-80
2021/10/01 11:21:34;;;;;;;3.47;1.65;;;15.90;99.90;;;;;;5058467;28;20069;-77
2021/10/01 11:24:01;;;;;;;4.18;1.67;;;16.00;99.90;;;;;;5050820;28;20045;-78
2021/10/01 11:26:33;;;;;;;7.50;1.95;;;16.00;99.90;;;;;;5037611;28;20385;-77
2021/10/01 11:29:00;;;;;;;8.90;1.40;;;16.00;99.90;;;;;;5046126;28;20036;-77
2021/10/01 11:31:38;;;;;;;6.00;1.48;;;16.00;99.90;;;;;;5038884;28;20024;-77
2021/10/01 11:34:03;;;;;;;6.15;1.50;;;16.10;99.90;;;;;;5036391;28;20018;-77
2021/10/01 11:36:29;;;;;;;6.50;1.63;;;16.20;99.90;;;;;;5034453;28;20040;-77
2021/10/01 11:39:13;;;;;;;8.82;1.70;;;16.20;99.90;;;;;;5034320;28;20587;-78
2021/10/01 11:41:47;;;;;;;4.72;1.45;;;16.20;99.90;;;;;;5033998;28;20494;-77
2021/10/01 11:44:16;;;;;;;4.38;1.52;;;16.20;99.90;;;;;;5035787;28;20037;-77
2021/10/01 11:46:47;;;;;;;7.03;1.38;;;16.20;99.90;;;;;;5037126;28;20029;-78
2021/10/01 11:49:18;;;;;;;3.75;1.33;;;16.20;99.90;;;;;;5035302;28;20105;-77
2021/10/01 11:52:17;;;;;;;;;;;16.20;99.90;;;;;;5041811;28;20028;-77
2021/10/01 11:54:53;;;;;;;6.00;1.42;;;16.20;99.90;;;;;;5010363;28;19913;-77
2021/10/01 11:57:19;;;;;;;3.42;1.55;;;16.20;99.90;;;;;;5042750;28;20032;-77
2021/10/01 11:59:57;;;;;;;3.65;1.50;;;16.20;99.90;;;;;;5039102;28;20080;-77
2021/10/01 12:02:42;;;;;;;5.43;1.85;;;16.20;99.90;;;;;;5033552;28;20064;-76
2021/10/01 12:05:30;;;;;;;3.67;1.52;;;16.10;99.90;;;;;;5033184;28;20474;-77
2021/10/01 12:08:01;;;;;;;7.75;1.70;;;16.00;99.90;;;;;;5035470;28;20029;-79
2021/10/01 12:10:32;;;;;;;3.17;1.25;;;16.00;99.90;;;;;;5041233;28;20124;-76
2021/10/01 12:13:01;;;;;;;7.32;1.65;;;16.10;99.90;;;;;;5036303;28;20072;-76
2021/10/01 12:15:42;;;;;;;6.43;2.00;;;16.10;99.90;;;;;;5053527;28;20021;-77
2021/10/01 12:18:25;;;;;;;4.28;1.65;;;16.10;99.90;;;;;;5053674;28;20485;-76
2021/10/01 12:20:50;;;;;;;3.95;1.52;;;16.10;99.90;;;;;;5053332;28;20064;-77
2021/10/01 12:23:28;;;;;;;3.90;1.80;;;16.20;99.90;;;;;;5048582;28;20020;-77
2021/10/01 12:25:55;;;;;;;3.83;1.65;;;16.20;99.90;;;;;;5039062;28;20423;-78
2021/10/01 12:28:22;;;;;;;3.55;1.42;;;16.10;99.90;;;;;;5034861;28;20022;-78
2021/10/01 12:31:04;;;;;;;6.65;1.85;;;16.10;99.90;;;;;;5039417;28;20028;-78
2021/10/01 12:33:31;;;;;;;6.40;1.98;;;16.20;99.90;;;;;;5038665;28;20429;-77
2021/10/01 12:35:57;;;;;;;6.88;2.25;;;16.20;99.90;;;;;;5032631;28;20028;-78
2021/10/01 12:38:23;;;;;;;5.97;1.60;;;16.20;99.90;;;;;;5034704;28;20378;-78
2021/10/01 12:41:15;;;;;;;7.05;1.63;;;16.30;99.90;;;;;;5037889;28;20028;-78
2021/10/01 12:44:02;;;;;;;5.55;1.95;;;16.40;99.90;;;;;;5030521;28;20044;-77
2021/10/01 12:46:40;;;;;;;3.28;1.75;;;16.40;99.90;;;;;;5043176;28;20017;-78
2021/10/01 12:49:21;;;;;;;5.20;2.45;;;16.50;99.90;;;;;;5048016;28;20026;-77
2021/10/01 12:51:59;;;;;;;;;;;16.60;99.90;;;;;;5048276;28;20040;-77
2021/10/01 12:54:29;;;;;;;3.17;1.65;;;16.60;99.90;;;;;;5034370;28;19905;-78
2021/10/01 12:57:50;;;;;;;5.60;1.45;;;16.60;99.90;;;;;;5032214;28;20495;-77
2021/10/01 13:00:20;;;;;;;3.65;1.40;;;16.60;99.90;;;;;;4982406;28;20737;-77
2021/10/01 13:02:57;;;;;;;4.07;1.67;;;16.60;99.90;;;;;;5040320;28;20072;-78
2021/10/01 13:05:30;;;;;;;4.63;1.65;;;16.60;99.90;;;;;;5041310;28;20038;-78
2021/10/01 13:07:56;;;;;;;6.85;1.73;;;16.60;99.90;;;;;;5032470;28;20025;-80
2021/10/01 13:10:40;;;;;;;6.13;1.42;;;16.50;99.90;;;;;;5038077;28;20086;-77
2021/10/01 13:13:14;;;;;;;10.45;2.70;;;16.50;99.90;;;;;;5034213;28;20116;-78
2021/10/01 13:15:43;;;;;;;4.57;1.90;;;16.50;99.90;;;;;;5052569;28;20021;-78
2021/10/01 13:18:17;;;;;;;6.05;2.10;;;16.50;99.90;;;;;;5044765;28;20025;-79
2021/10/01 13:20:55;;;;;;;7.80;1.80;;;16.40;99.90;;;;;;5032155;28;20421;-79
2021/10/01 13:23:42;;;;;;;4.07;1.80;;;16.40;99.90;;;;;;5045560;28;20122;-77
2021/10/01 13:26:30;;;;;;;12.35;1.90;;;16.30;99.90;;;;;;5031356;28;20381;-77
2021/10/01 13:29:03;;;;;;;3.92;2.00;;;16.20;99.90;;;;;;5051611;28;20112;-77
2021/10/01 13:31:47;;;;;;;7.75;1.80;;;16.10;99.90;;;;;;5051954;28;20013;-78
2021/10/01 13:34:15;;;;;;;3.67;1.95;;;16.10;99.90;;;;;;5052377;28;20029;-77
2021/10/01 13:36:41;;;;;;;4.25;1.40;;;16.00;99.90;;;;;;5052477;28;20470;-77
2021/10/01 13:39:07;;;;;;;9.00;1.80;;;16.00;99.90;;;;;;5051463;28;20025;-77
2021/10/01 13:41:33;;;;;;;15.45;1.75;;;16.10;99.90;;;;;;5052011;28;20127;-78
2021/10/01 13:43:59;;;;;;;7.35;1.70;;;16.00;99.90;;;;;;5051749;28;20070;-78
2021/10/01 13:46:25;;;;;;;6.07;1.92;;;16.10;99.90;;;;;;5050622;28;20380;-77
2021/10/01 13:48:54;;;;;;;5.07;1.30;;;16.20;99.90;;;;;;5050894;28;20269;-76
2021/10/01 13:51:20;;;;;;;3.40;1.55;;;16.20;99.90;;;;;;5050785;28;20037;-77
2021/10/01 13:53:46;;;;;;;3.70;1.40;;;16.20;99.90;;;;;;5049043;28;20040;-77
2021/10/01 13:56:12;;;;;;;6.28;1.30;;;16.30;99.90;;;;;;5050459;28;20099;-77
2021/10/01 13:58:38;;;;;;;5.38;1.50;;;16.40;99.90;;;;;;5050399;28;20159;-77
2021/10/01 14:01:04;;;;;;;4.72;1.20;;;16.40;99.90;;;;;;5050881;28;20404;-77
2021/10/01 14:03:30;;;;;;;8.20;1.80;;;16.50;99.90;;;;;;5052124;28;20075;-77
2021/10/01 14:05:56;;;;;;;6.68;1.65;;;16.50;99.90;;;;;;5051578;28;20033;-76
2021/10/01 14:08:22;;;;;;;5.38;1.52;;;16.50;99.90;;;;;;5051264;28;20025;-77
2021/10/01 14:10:48;;;;;;;7.20;1.30;;;16.50;99.90;;;;;;5051492;28;20516;-77
2021/10/01 14:13:15;;;;;;;4.50;1.45;;;16.50;99.90;;;;;;5037795;28;20034;-77
2021/10/01 14:15:43;;;;;;;7.30;1.52;;;16.50;99.90;;;;;;5051133;28;20107;-76
2021/10/01 14:18:11;;;;;;;4.57;1.13;;;16.50;99.90;;;;;;5051306;28;20025;-77
2021/10/01 14:20:37;;;;;;;5.65;2.13;;;16.50;99.90;;;;;;5051639;28;20477;-77
2021/10/01 14:23:04;;;;;;;5.53;1.38;;;16.40;99.90;;;;;;5050913;28;20113;-77
2021/10/01 14:25:31;;;;;;;2.10;1.00;;;16.30;99.90;;;;;;5051694;28;20029;-78
2021/10/01 14:27:58;;;;;;;7.97;2.35;;;16.20;99.90;;;;;;5051607;28;20035;-77
2021/10/01 14:30:28;;;;;;;6.85;1.50;;;16.20;99.90;;;;;;5055393;28;20082;-77
2021/10/01 14:32:55;;;;;;;5.10;1.27;;;16.10;99.90;;;;;;5056166;28;20052;-76
2021/10/01 14:35:21;;;;;;;6.63;1.67;;;16.10;99.90;;;;;;5054783;28;20040;-77
2021/10/01 14:37:46;;;;;;;12.57;1.58;;;16.00;99.90;;;;;;5055724;28;20029;-77
2021/10/01 14:40:12;;;;;;;4.57;1.30;;;16.00;99.90;;;;;;5056099;28;20024;-77
2021/10/01 14:42:38;;;;;;;8.18;1.85;;;16.00;99.90;;;;;;5055048;28;20025;-77